sensor_id;sensor_type;location;lat;lon;timestamp;pressure;altitude;pressure_sealevel;temperature;humidity
71915;BME280;60387;49.994;14.660;2022-08-19T00:02:08;96890.81;;;23.56;48.73
71915;BME280;60387;49.994;14.660;2022-08-19T00:04:42;96896.34;;;23.56;48.91
71915;BME280;60387;49.994;14.660;2022-08-19T00:07:15;96900.69;;;23.54;51.00
71915;BME280;60387;49.994;14.660;2022-08-19T00:09:48;96901.53;;;23.48;49.83
71915;BME280;60387;49.994;14.660;2022-08-19T00:12:21;96900.34;;;23.45;50.04
71915;BME280;60387;49.994;14.660;2022-08-19T00:14:55;96903.56;;;23.40;49.87
71915;BME280;60387;49.994;14.660;2022-08-19T00:17:28;96897.63;;;23.38;49.56
71915;BME280;60387;49.994;14.660;2022-08-19T00:20:02;96897.66;;;23.35;49.54
71915;BME280;60387;49.994;14.660;2022-08-19T00:22:37;96893.34;;;23.30;49.25
71915;BME280;60387;49.994;14.660;2022-08-19T00:25:11;96887.84;;;23.27;50.51
71915;BME280;60387;49.994;14.660;2022-08-19T00:27:44;96894.94;;;23.28;49.41
71915;BME280;60387;49.994;14.660;2022-08-19T00:30:17;96884.69;;;23.21;49.54
71915;BME280;60387;49.994;14.660;2022-08-19T00:32:51;96875.63;;;23.21;49.43
71915;BME280;60387;49.994;14.660;2022-08-19T00:35:25;96868.56;;;23.16;50.63
71915;BME280;60387;49.994;14.660;2022-08-19T00:37:58;96872.50;;;23.08;50.14
71915;BME280;60387;49.994;14.660;2022-08-19T00:40:32;96868.16;;;23.11;50.09
71915;BME280;60387;49.994;14.660;2022-08-19T00:43:10;96872.16;;;23.03;50.15
71915;BME280;60387;49.994;14.660;2022-08-19T00:45:44;96881.22;;;23.03;51.39
71915;BME280;60387;49.994;14.660;2022-08-19T00:48:18;96876.50;;;22.97;50.61
71915;BME280;60387;49.994;14.660;2022-08-19T00:50:53;96867.06;;;22.91;50.52
71915;BME280;60387;49.994;14.660;2022-08-19T00:53:28;96867.84;;;22.91;50.27
71915;BME280;60387;49.994;14.660;2022-08-19T00:56:03;96865.91;;;22.88;52.95
71915;BME280;60387;49.994;14.660;2022-08-19T00:58:36;96879.72;;;22.85;51.51
71915;BME280;60387;49.994;14.660;2022-08-19T01:01:10;96878.16;;;22.80;51.43
71915;BME280;60387;49.994;14.660;2022-08-19T01:03:43;96877.00;;;22.78;50.79
71915;BME280;60387;49.994;14.660;2022-08-19T01:06:16;96886.84;;;22.75;51.69
71915;BME280;60387;49.994;14.660;2022-08-19T01:08:50;96895.97;;;22.69;52.14
71915;BME280;60387;49.994;14.660;2022-08-19T01:11:23;96903.06;;;22.66;51.63
71915;BME280;60387;49.994;14.660;2022-08-19T01:13:57;96899.91;;;22.61;51.00
71915;BME280;60387;49.994;14.660;2022-08-19T01:16:32;96901.88;;;22.60;50.84
71915;BME280;60387;49.994;14.660;2022-08-19T01:19:19;96899.94;;;22.57;51.21
71915;BME280;60387;49.994;14.660;2022-08-19T01:22:08;96901.50;;;22.55;52.52
71915;BME280;60387;49.994;14.660;2022-08-19T01:24:45;96878.66;;;22.40;51.23
71915;BME280;60387;49.994;14.660;2022-08-19T01:27:18;96899.19;;;22.46;51.13
71915;BME280;60387;49.994;14.660;2022-08-19T01:29:51;96900.34;;;22.45;51.32
71915;BME280;60387;49.994;14.660;2022-08-19T01:32:25;96888.53;;;22.41;52.72
71915;BME280;60387;49.994;14.660;2022-08-19T01:34:58;96890.06;;;22.39;53.15
71915;BME280;60387;49.994;14.660;2022-08-19T01:37:51;96896.41;;;22.36;52.61
71915;BME280;60387;49.994;14.660;2022-08-19T01:40:29;96912.97;;;22.32;53.66
71915;BME280;60387;49.994;14.660;2022-08-19T01:43:03;96927.56;;;22.26;55.20
71915;BME280;60387;49.994;14.660;2022-08-19T01:45:37;96937.41;;;22.20;54.72
71915;BME280;60387;49.994;14.660;2022-08-19T01:48:10;96939.78;;;22.11;55.00
71915;BME280;60387;49.994;14.660;2022-08-19T01:50:44;96933.47;;;22.07;55.21
71915;BME280;60387;49.994;14.660;2022-08-19T01:53:17;96932.28;;;22.01;54.04
71915;BME280;60387;49.994;14.660;2022-08-19T01:55:50;96940.94;;;21.99;53.48
71915;BME280;60387;49.994;14.660;2022-08-19T01:58:29;96936.63;;;21.91;53.82
71915;BME280;60387;49.994;14.660;2022-08-19T02:01:05;96945.69;;;21.95;54.00
71915;BME280;60387;49.994;14.660;2022-08-19T02:03:39;96956.72;;;21.92;55.00
71915;BME280;60387;49.994;14.660;2022-08-19T02:06:13;96950.03;;;21.93;56.54
71915;BME280;60387;49.994;14.660;2022-08-19T02:08:46;96946.06;;;21.87;56.47
71915;BME280;60387;49.994;14.660;2022-08-19T02:11:23;96940.53;;;21.83;55.60
71915;BME280;60387;49.994;14.660;2022-08-19T02:13:57;96945.28;;;21.79;56.65
71915;BME280;60387;49.994;14.660;2022-08-19T02:16:31;96946.84;;;21.80;57.40
71915;BME280;60387;49.994;14.660;2022-08-19T02:19:04;96946.84;;;21.73;56.70
71915;BME280;60387;49.994;14.660;2022-08-19T02:21:38;96946.81;;;21.66;56.27
71915;BME280;60387;49.994;14.660;2022-08-19T02:24:11;96958.25;;;21.68;56.43
71915;BME280;60387;49.994;14.660;2022-08-19T02:26:44;96973.63;;;21.66;56.25
71915;BME280;60387;49.994;14.660;2022-08-19T02:29:18;96968.84;;;21.63;56.10
71915;BME280;60387;49.994;14.660;2022-08-19T02:31:51;96982.22;;;21.61;57.07
71915;BME280;60387;49.994;14.660;2022-08-19T02:34:24;96972.75;;;21.58;57.11
71915;BME280;60387;49.994;14.660;2022-08-19T02:36:58;96963.31;;;21.52;55.94
71915;BME280;60387;49.994;14.660;2022-08-19T02:39:31;96957.00;;;21.55;56.01
71915;BME280;60387;49.994;14.660;2022-08-19T02:42:05;96969.22;;;21.54;56.45
71915;BME280;60387;49.994;14.660;2022-08-19T02:44:38;96972.75;;;21.55;56.29
71915;BME280;60387;49.994;14.660;2022-08-19T02:47:12;96960.56;;;21.52;57.55
71915;BME280;60387;49.994;14.660;2022-08-19T02:49:45;96963.31;;;21.49;58.42
71915;BME280;60387;49.994;14.660;2022-08-19T02:52:19;96960.94;;;21.47;57.38
71915;BME280;60387;49.994;14.660;2022-08-19T02:54:52;96956.56;;;21.39;56.84
71915;BME280;60387;49.994;14.660;2022-08-19T02:57:25;96967.19;;;21.37;56.92
71915;BME280;60387;49.994;14.660;2022-08-19T02:59:59;96975.84;;;21.36;56.24
71915;BME280;60387;49.994;14.660;2022-08-19T03:02:33;96988.84;;;21.35;57.93
71915;BME280;60387;49.994;14.660;2022-08-19T03:05:07;96997.09;;;21.32;57.69
71915;BME280;60387;49.994;14.660;2022-08-19T03:07:41;96984.50;;;21.27;56.81
71915;BME280;60387;49.994;14.660;2022-08-19T03:10:14;96984.06;;;21.25;57.65
71915;BME280;60387;49.994;14.660;2022-08-19T03:12:48;96981.31;;;21.25;58.75
71915;BME280;60387;49.994;14.660;2022-08-19T03:15:21;96980.50;;;21.18;58.92
71915;BME280;60387;49.994;14.660;2022-08-19T03:17:54;96988.78;;;21.18;57.27
71915;BME280;60387;49.994;14.660;2022-08-19T03:20:28;96983.63;;;21.16;58.19
71915;BME280;60387;49.994;14.660;2022-08-19T03:23:01;96995.84;;;21.15;58.66
71915;BME280;60387;49.994;14.660;2022-08-19T03:25:43;96986.78;;;21.11;57.69
71915;BME280;60387;49.994;14.660;2022-08-19T03:28:17;96991.50;;;21.11;56.93
71915;BME280;60387;49.994;14.660;2022-08-19T03:31:06;96987.53;;;21.08;56.90
71915;BME280;60387;49.994;14.660;2022-08-19T03:33:40;96989.13;;;21.06;56.86
71915;BME280;60387;49.994;14.660;2022-08-19T03:36:17;96991.47;;;21.07;57.48
71915;BME280;60387;49.994;14.660;2022-08-19T03:38:53;96982.03;;;21.01;56.95
71915;BME280;60387;49.994;14.660;2022-08-19T03:41:30;96985.94;;;21.04;59.06
71915;BME280;60387;49.994;14.660;2022-08-19T03:44:04;96990.69;;;21.03;60.05
71915;BME280;60387;49.994;14.660;2022-08-19T03:46:38;96986.69;;;20.94;58.13
71915;BME280;60387;49.994;14.660;2022-08-19T03:49:11;96991.44;;;20.97;59.72
71915;BME280;60387;49.994;14.660;2022-08-19T03:51:46;96993.00;;;20.94;59.15
71915;BME280;60387;49.994;14.660;2022-08-19T03:54:21;96986.66;;;20.90;59.92
71915;BME280;60387;49.994;14.660;2022-08-19T03:56:56;96994.13;;;20.86;58.51
71915;BME280;60387;49.994;14.660;2022-08-19T03:59:32;96983.88;;;20.83;57.84
71915;BME280;60387;49.994;14.660;2022-08-19T04:02:09;96974.44;;;20.84;57.18
71915;BME280;60387;49.994;14.660;2022-08-19T04:04:43;96973.25;;;20.85;57.33
71915;BME280;60387;49.994;14.660;2022-08-19T04:07:16;96974.84;;;20.86;57.18
71915;BME280;60387;49.994;14.660;2022-08-19T04:09:50;96972.84;;;20.83;56.86
71915;BME280;60387;49.994;14.660;2022-08-19T04:12:23;96973.69;;;20.87;56.80
71915;BME280;60387;49.994;14.660;2022-08-19T04:14:56;96972.88;;;20.90;58.65
71915;BME280;60387;49.994;14.660;2022-08-19T04:17:30;96990.63;;;20.93;59.99
71915;BME280;60387;49.994;14.660;2022-08-19T04:20:03;96991.41;;;20.93;59.83
71915;BME280;60387;49.994;14.660;2022-08-19T04:22:37;96999.69;;;20.93;59.03
71915;BME280;60387;49.994;14.660;2022-08-19T04:25:10;97001.25;;;20.94;60.52
71915;BME280;60387;49.994;14.660;2022-08-19T04:27:43;97013.88;;;20.99;59.60
71915;BME280;60387;49.994;14.660;2022-08-19T04:30:17;97011.13;;;21.02;58.66
71915;BME280;60387;49.994;14.660;2022-08-19T04:32:50;97009.56;;;21.01;59.69
71915;BME280;60387;49.994;14.660;2022-08-19T04:35:23;97024.56;;;21.14;58.66
71915;BME280;60387;49.994;14.660;2022-08-19T04:37:57;97032.50;;;21.26;58.53
71915;BME280;60387;49.994;14.660;2022-08-19T04:40:30;97039.63;;;21.41;58.17
71915;BME280;60387;49.994;14.660;2022-08-19T04:43:03;97038.53;;;21.56;58.07
71915;BME280;60387;49.994;14.660;2022-08-19T04:45:36;97049.25;;;21.75;57.42
71915;BME280;60387;49.994;14.660;2022-08-19T04:48:10;97046.94;;;21.91;58.76
71915;BME280;60387;49.994;14.660;2022-08-19T04:50:44;97059.19;;;22.08;59.37
71915;BME280;60387;49.994;14.660;2022-08-19T04:53:17;97058.81;;;22.16;59.63
71915;BME280;60387;49.994;14.660;2022-08-19T04:55:50;97048.16;;;22.11;58.22
71915;BME280;60387;49.994;14.660;2022-08-19T04:58:25;97066.31;;;22.33;57.70
71915;BME280;60387;49.994;14.660;2022-08-19T05:00:59;97054.13;;;22.45;57.32
71915;BME280;60387;49.994;14.660;2022-08-19T05:03:32;97057.28;;;22.57;56.76
71915;BME280;60387;49.994;14.660;2022-08-19T05:06:08;97061.63;;;22.72;57.71
71915;BME280;60387;49.994;14.660;2022-08-19T05:08:42;97062.78;;;22.85;57.11
71915;BME280;60387;49.994;14.660;2022-08-19T05:11:18;97063.16;;;23.01;56.81
71915;BME280;60387;49.994;14.660;2022-08-19T05:13:52;97066.31;;;23.10;56.72
71915;BME280;60387;49.994;14.660;2022-08-19T05:16:27;97077.38;;;23.17;56.78
71915;BME280;60387;49.994;14.660;2022-08-19T05:19:00;97080.53;;;23.23;57.23
71915;BME280;60387;49.994;14.660;2022-08-19T05:21:34;97078.56;;;23.23;58.46
71915;BME280;60387;49.994;14.660;2022-08-19T05:24:09;97091.56;;;23.26;60.02
71915;BME280;60387;49.994;14.660;2022-08-19T05:26:44;97091.56;;;23.26;57.60
71915;BME280;60387;49.994;14.660;2022-08-19T05:29:20;97083.66;;;23.28;57.09
71915;BME280;60387;49.994;14.660;2022-08-19T05:31:54;97089.53;;;23.51;56.96
71915;BME280;60387;49.994;14.660;2022-08-19T05:34:28;97087.50;;;23.69;57.11
71915;BME280;60387;49.994;14.660;2022-08-19T05:37:02;97099.69;;;23.85;57.79
71915;BME280;60387;49.994;14.660;2022-08-19T05:39:37;97118.56;;;24.08;57.02
71915;BME280;60387;49.994;14.660;2022-08-19T05:42:11;97120.03;;;24.30;56.29
71915;BME280;60387;49.994;14.660;2022-08-19T05:44:44;97134.16;;;24.46;56.06
71915;BME280;60387;49.994;14.660;2022-08-19T05:47:19;97146.78;;;24.54;56.10
71915;BME280;60387;49.994;14.660;2022-08-19T05:49:52;97144.00;;;24.54;55.68
71915;BME280;60387;49.994;14.660;2022-08-19T05:52:25;97147.59;;;24.51;55.76
71915;BME280;60387;49.994;14.660;2022-08-19T05:54:59;97153.56;;;24.46;56.31
71915;BME280;60387;49.994;14.660;2022-08-19T05:57:32;97163.09;;;24.38;56.57
71915;BME280;60387;49.994;14.660;2022-08-19T06:00:06;97165.91;;;24.27;56.51
71915;BME280;60387;49.994;14.660;2022-08-19T06:02:40;97173.09;;;24.14;56.72
71915;BME280;60387;49.994;14.660;2022-08-19T06:05:13;97173.94;;;24.08;56.83
71915;BME280;60387;49.994;14.660;2022-08-19T06:07:47;97182.63;;;24.03;56.72
71915;BME280;60387;49.994;14.660;2022-08-19T06:10:20;97189.75;;;23.97;57.12
71915;BME280;60387;49.994;14.660;2022-08-19T06:12:53;97192.16;;;23.95;58.05
71915;BME280;60387;49.994;14.660;2022-08-19T06:15:27;97195.31;;;23.90;57.21
71915;BME280;60387;49.994;14.660;2022-08-19T06:18:00;97192.16;;;23.91;58.25
71915;BME280;60387;49.994;14.660;2022-08-19T06:20:33;97192.97;;;23.92;58.03
71915;BME280;60387;49.994;14.660;2022-08-19T06:23:07;97188.19;;;23.96;57.67
71915;BME280;60387;49.994;14.660;2022-08-19T06:25:40;97188.16;;;24.03;58.63
71915;BME280;60387;49.994;14.660;2022-08-19T06:28:13;97190.53;;;24.08;57.94
71915;BME280;60387;49.994;14.660;2022-08-19T06:30:47;97188.13;;;24.17;57.91
71915;BME280;60387;49.994;14.660;2022-08-19T06:33:20;97201.53;;;24.22;58.16
71915;BME280;60387;49.994;14.660;2022-08-19T06:35:53;97201.88;;;24.34;57.27
71915;BME280;60387;49.994;14.660;2022-08-19T06:38:26;97204.59;;;24.45;57.63
71915;BME280;60387;49.994;14.660;2022-08-19T06:41:04;97211.25;;;24.58;56.73
71915;BME280;60387;49.994;14.660;2022-08-19T06:43:37;97213.22;;;24.68;56.33
71915;BME280;60387;49.994;14.660;2022-08-19T06:46:13;97225.34;;;24.88;57.07
71915;BME280;60387;49.994;14.660;2022-08-19T06:48:47;97243.88;;;24.98;56.78
71915;BME280;60387;49.994;14.660;2022-08-19T06:51:21;97244.22;;;25.07;57.05
71915;BME280;60387;49.994;14.660;2022-08-19T06:53:55;97241.78;;;25.12;56.53
71915;BME280;60387;49.994;14.660;2022-08-19T06:56:30;97240.56;;;25.24;56.41
71915;BME280;60387;49.994;14.660;2022-08-19T06:59:11;97244.03;;;25.35;56.07
71915;BME280;60387;49.994;14.660;2022-08-19T07:01:47;97249.06;;;25.50;55.54
71915;BME280;60387;49.994;14.660;2022-08-19T07:04:29;97245.75;;;25.66;55.04
71915;BME280;60387;49.994;14.660;2022-08-19T07:07:11;97257.09;;;25.82;55.04
71915;BME280;60387;49.994;14.660;2022-08-19T07:09:45;97244.72;;;25.93;54.52
71915;BME280;60387;49.994;14.660;2022-08-19T07:12:18;97240.97;;;26.10;54.28
71915;BME280;60387;49.994;14.660;2022-08-19T07:14:52;97233.91;;;26.36;53.97
71915;BME280;60387;49.994;14.660;2022-08-19T07:17:25;97224.91;;;26.58;53.87
71915;BME280;60387;49.994;14.660;2022-08-19T07:19:58;97218.91;;;26.90;53.16
71915;BME280;60387;49.994;14.660;2022-08-19T07:22:32;97219.72;;;27.17;52.22
71915;BME280;60387;49.994;14.660;2022-08-19T07:25:07;97190.47;;;27.32;51.68
71915;BME280;60387;49.994;14.660;2022-08-19T07:27:41;97200.13;;;27.46;51.56
71915;BME280;60387;49.994;14.660;2022-08-19T07:30:14;97213.97;;;27.76;51.71
71915;BME280;60387;49.994;14.660;2022-08-19T07:32:48;97216.19;;;28.04;50.85
71915;BME280;60387;49.994;14.660;2022-08-19T07:35:21;97201.13;;;28.21;49.69
71915;BME280;60387;49.994;14.660;2022-08-19T07:37:54;97193.16;;;28.43;50.29
71915;BME280;60387;49.994;14.660;2022-08-19T07:40:28;97170.53;;;28.76;49.28
71915;BME280;60387;49.994;14.660;2022-08-19T07:43:01;97167.94;;;29.01;48.57
71915;BME280;60387;49.994;14.660;2022-08-19T07:45:35;97157.16;;;29.19;47.93
71915;BME280;60387;49.994;14.660;2022-08-19T07:48:08;97153.50;;;29.54;47.98
71915;BME280;60387;49.994;14.660;2022-08-19T07:50:42;97144.19;;;29.73;47.56
71915;BME280;60387;49.994;14.660;2022-08-19T07:53:15;97140.00;;;29.81;46.46
71915;BME280;60387;49.994;14.660;2022-08-19T07:55:49;97140.19;;;29.74;46.51
71915;BME280;60387;49.994;14.660;2022-08-19T07:58:22;97124.59;;;29.61;47.07
71915;BME280;60387;49.994;14.660;2022-08-19T08:00:56;97120.34;;;29.56;46.48
71915;BME280;60387;49.994;14.660;2022-08-19T08:03:29;97104.81;;;29.55;46.77
71915;BME280;60387;49.994;14.660;2022-08-19T08:06:02;97091.53;;;29.59;46.62
71915;BME280;60387;49.994;14.660;2022-08-19T08:08:36;97084.28;;;29.62;46.38
71915;BME280;60387;49.994;14.660;2022-08-19T08:11:09;97088.41;;;29.57;46.35
71915;BME280;60387;49.994;14.660;2022-08-19T08:13:43;97105.75;;;29.49;46.44
71915;BME280;60387;49.994;14.660;2022-08-19T08:16:16;97124.69;;;29.41;46.78
71915;BME280;60387;49.994;14.660;2022-08-19T08:18:49;97143.38;;;29.28;46.86
71915;BME280;60387;49.994;14.660;2022-08-19T08:21:23;97167.09;;;29.20;46.50
71915;BME280;60387;49.994;14.660;2022-08-19T08:23:56;97180.63;;;29.06;46.85
71915;BME280;60387;49.994;14.660;2022-08-19T08:26:29;97200.84;;;28.90;47.04
71915;BME280;60387;49.994;14.660;2022-08-19T08:29:03;97211.91;;;28.78;46.97
71915;BME280;60387;49.994;14.660;2022-08-19T08:31:37;97217.00;;;28.63;47.03
71915;BME280;60387;49.994;14.660;2022-08-19T08:34:11;97215.22;;;28.53;47.24
71915;BME280;60387;49.994;14.660;2022-08-19T08:36:46;97214.06;;;28.31;47.40
71915;BME280;60387;49.994;14.660;2022-08-19T08:39:20;97215.19;;;28.14;47.51
71915;BME280;60387;49.994;14.660;2022-08-19T08:42:22;97225.78;;;28.03;48.10
71915;BME280;60387;49.994;14.660;2022-08-19T08:45:10;97220.91;;;28.07;48.64
71915;BME280;60387;49.994;14.660;2022-08-19T08:47:48;97214.44;;;28.14;48.33
71915;BME280;60387;49.994;14.660;2022-08-19T08:50:34;97215.34;;;28.27;48.53
71915;BME280;60387;49.994;14.660;2022-08-19T08:53:10;97214.81;;;28.35;48.09
71915;BME280;60387;49.994;14.660;2022-08-19T08:55:44;97219.38;;;28.45;47.88
71915;BME280;60387;49.994;14.660;2022-08-19T08:58:28;97227.88;;;28.58;48.05
71915;BME280;60387;49.994;14.660;2022-08-19T09:01:02;97222.84;;;28.69;47.83
71915;BME280;60387;49.994;14.660;2022-08-19T09:03:37;97227.97;;;28.90;47.60
71915;BME280;60387;49.994;14.660;2022-08-19T09:14:37;97209.69;;;29.56;44.91
71915;BME280;60387;49.994;14.660;2022-08-19T09:17:13;97228.22;;;29.79;45.58
71915;BME280;60387;49.994;14.660;2022-08-19T09:22:25;97216.38;;;30.03;45.28
71915;BME280;60387;49.994;14.660;2022-08-19T09:24:58;97212.00;;;30.18;44.62
71915;BME280;60387;49.994;14.660;2022-08-19T09:27:32;97219.13;;;30.35;44.64
71915;BME280;60387;49.994;14.660;2022-08-19T09:30:15;97217.19;;;30.61;44.10
71915;BME280;60387;49.994;14.660;2022-08-19T09:32:50;97218.47;;;30.85;43.79
71915;BME280;60387;49.994;14.660;2022-08-19T09:35:25;97218.34;;;31.01;43.27
71915;BME280;60387;49.994;14.660;2022-08-19T09:37:59;97222.84;;;30.98;43.48
71915;BME280;60387;49.994;14.660;2022-08-19T09:40:32;97221.25;;;30.97;43.44
71915;BME280;60387;49.994;14.660;2022-08-19T09:43:06;97208.41;;;31.00;43.69
71915;BME280;60387;49.994;14.660;2022-08-19T09:45:39;97215.22;;;30.99;43.20
71915;BME280;60387;49.994;14.660;2022-08-19T09:48:13;97229.13;;;31.02;43.35
71915;BME280;60387;49.994;14.660;2022-08-19T09:50:46;97228.47;;;30.98;43.54
71915;BME280;60387;49.994;14.660;2022-08-19T09:53:19;97231.25;;;30.98;43.58
71915;BME280;60387;49.994;14.660;2022-08-19T09:55:55;97234.50;;;30.97;43.38
71915;BME280;60387;49.994;14.660;2022-08-19T09:58:28;97233.94;;;30.89;41.80
71915;BME280;60387;49.994;14.660;2022-08-19T10:01:03;97246.31;;;30.76;42.31
71915;BME280;60387;49.994;14.660;2022-08-19T10:03:36;97245.50;;;30.63;42.17
71915;BME280;60387;49.994;14.660;2022-08-19T10:06:09;97237.94;;;30.47;42.80
71915;BME280;60387;49.994;14.660;2022-08-19T10:08:43;97244.50;;;30.41;43.32
71915;BME280;60387;49.994;14.660;2022-08-19T10:11:18;97229.63;;;30.31;43.14
71915;BME280;60387;49.994;14.660;2022-08-19T10:13:52;97238.78;;;30.32;42.99
71915;BME280;60387;49.994;14.660;2022-08-19T10:16:25;97240.56;;;30.26;42.58
71915;BME280;60387;49.994;14.660;2022-08-19T10:18:59;97244.56;;;30.25;43.07
71915;BME280;60387;49.994;14.660;2022-08-19T10:21:33;97245.06;;;30.36;43.48
71915;BME280;60387;49.994;14.660;2022-08-19T10:24:06;97246.00;;;30.58;43.23
71915;BME280;60387;49.994;14.660;2022-08-19T10:26:40;97237.81;;;30.92;43.31
71915;BME280;60387;49.994;14.660;2022-08-19T10:29:14;97246.28;;;31.29;42.51
71915;BME280;60387;49.994;14.660;2022-08-19T10:31:47;97238.97;;;31.56;42.05
71915;BME280;60387;49.994;14.660;2022-08-19T10:34:20;97233.47;;;31.78;41.10
71915;BME280;60387;49.994;14.660;2022-08-19T10:36:54;97244.09;;;31.95;41.01
71915;BME280;60387;49.994;14.660;2022-08-19T10:39:29;97243.25;;;32.07;40.55
71915;BME280;60387;49.994;14.660;2022-08-19T10:42:06;97249.19;;;32.09;40.49
71915;BME280;60387;49.994;14.660;2022-08-19T10:44:40;97245.13;;;32.10;41.21
71915;BME280;60387;49.994;14.660;2022-08-19T10:47:14;97243.97;;;32.20;40.59
71915;BME280;60387;49.994;14.660;2022-08-19T10:49:49;97244.69;;;32.24;40.24
71915;BME280;60387;49.994;14.660;2022-08-19T10:52:22;97244.69;;;32.24;39.77
71915;BME280;60387;49.994;14.660;2022-08-19T10:54:55;97245.59;;;32.21;39.20
71915;BME280;60387;49.994;14.660;2022-08-19T10:57:32;97247.94;;;32.23;39.03
71915;BME280;60387;49.994;14.660;2022-08-19T11:00:06;97241.44;;;32.26;40.16
71915;BME280;60387;49.994;14.660;2022-08-19T11:02:39;97231.38;;;32.37;40.45
71915;BME280;60387;49.994;14.660;2022-08-19T11:05:13;97246.00;;;32.54;38.91
71915;BME280;60387;49.994;14.660;2022-08-19T11:07:46;97238.88;;;32.62;38.43
71915;BME280;60387;49.994;14.660;2022-08-19T11:10:19;97234.00;;;32.75;38.77
71915;BME280;60387;49.994;14.660;2022-08-19T11:12:53;97224.72;;;32.87;38.13
71915;BME280;60387;49.994;14.660;2022-08-19T11:15:26;97230.34;;;32.87;37.08
71915;BME280;60387;49.994;14.660;2022-08-19T11:17:59;97230.34;;;32.87;36.30
71915;BME280;60387;49.994;14.660;2022-08-19T11:20:33;97225.38;;;32.69;36.55
71915;BME280;60387;49.994;14.660;2022-08-19T11:23:06;97221.00;;;32.47;37.47
71915;BME280;60387;49.994;14.660;2022-08-19T11:25:39;97228.78;;;32.43;38.46
71915;BME280;60387;49.994;14.660;2022-08-19T11:28:12;97223.88;;;32.56;38.25
71915;BME280;60387;49.994;14.660;2022-08-19T11:30:46;97225.59;;;32.75;38.61
71915;BME280;60387;49.994;14.660;2022-08-19T11:33:19;97225.03;;;32.89;38.41
71915;BME280;60387;49.994;14.660;2022-08-19T11:35:53;97217.56;;;32.86;38.22
71915;BME280;60387;49.994;14.660;2022-08-19T11:38:26;97223.16;;;32.86;37.74
71915;BME280;60387;49.994;14.660;2022-08-19T11:41:02;97219.44;;;32.89;38.45
71915;BME280;60387;49.994;14.660;2022-08-19T11:43:37;97205.72;;;32.91;38.32
71915;BME280;60387;49.994;14.660;2022-08-19T11:46:13;97225.94;;;33.07;37.69
71915;BME280;60387;49.994;14.660;2022-08-19T11:48:46;97222.50;;;33.12;37.21
71915;BME280;60387;49.994;14.660;2022-08-19T11:51:22;97222.38;;;33.16;38.08
71915;BME280;60387;49.994;14.660;2022-08-19T11:53:58;97227.41;;;33.21;37.70
71915;BME280;60387;49.994;14.660;2022-08-19T11:56:32;97222.44;;;33.25;37.90
71915;BME280;60387;49.994;14.660;2022-08-19T11:59:06;97222.75;;;33.27;36.55
71915;BME280;60387;49.994;14.660;2022-08-19T12:01:39;97220.22;;;33.20;37.79
71915;BME280;60387;49.994;14.660;2022-08-19T12:04:12;97218.44;;;33.13;38.28
71915;BME280;60387;49.994;14.660;2022-08-19T12:06:46;97218.13;;;33.11;37.99
71915;BME280;60387;49.994;14.660;2022-08-19T12:09:19;97200.31;;;33.05;37.97
71915;BME280;60387;49.994;14.660;2022-08-19T12:11:52;97203.44;;;32.98;37.44
71915;BME280;60387;49.994;14.660;2022-08-19T12:14:26;97205.72;;;32.91;37.44
71915;BME280;60387;49.994;14.660;2022-08-19T12:16:59;97211.16;;;32.85;38.04
71915;BME280;60387;49.994;14.660;2022-08-19T12:19:33;97201.47;;;32.86;38.21
71915;BME280;60387;49.994;14.660;2022-08-19T12:22:06;97189.19;;;32.93;38.27
71915;BME280;60387;49.994;14.660;2022-08-19T12:24:39;97192.09;;;33.11;38.32
71915;BME280;60387;49.994;14.660;2022-08-19T12:27:13;97182.66;;;33.26;36.55
71915;BME280;60387;49.994;14.660;2022-08-19T12:29:46;97188.63;;;33.46;37.36
71915;BME280;60387;49.994;14.660;2022-08-19T12:32:19;97193.84;;;33.66;37.35
71915;BME280;60387;49.994;14.660;2022-08-19T12:34:53;97199.22;;;33.82;36.52
71915;BME280;60387;49.994;14.660;2022-08-19T12:37:26;97202.97;;;33.97;36.56
71915;BME280;60387;49.994;14.660;2022-08-19T12:40:00;97192.66;;;34.03;36.08
71915;BME280;60387;49.994;14.660;2022-08-19T12:42:33;97186.56;;;34.04;35.50
71915;BME280;60387;49.994;14.660;2022-08-19T12:45:07;97183.44;;;34.02;35.57
71915;BME280;60387;49.994;14.660;2022-08-19T12:47:40;97177.69;;;34.06;36.10
71915;BME280;60387;49.994;14.660;2022-08-19T12:50:13;97168.59;;;34.11;35.90
71915;BME280;60387;49.994;14.660;2022-08-19T12:52:47;97176.72;;;34.18;35.74
71915;BME280;60387;49.994;14.660;2022-08-19T12:55:21;97179.84;;;34.20;35.29
71915;BME280;60387;49.994;14.660;2022-08-19T12:57:54;97186.41;;;34.17;35.46
71915;BME280;60387;49.994;14.660;2022-08-19T13:00:28;97180.50;;;34.24;34.18
71915;BME280;60387;49.994;14.660;2022-08-19T13:03:01;97173.78;;;34.30;34.19
71915;BME280;60387;49.994;14.660;2022-08-19T13:05:35;97190.19;;;34.41;35.11
71915;BME280;60387;49.994;14.660;2022-08-19T13:08:08;97183.88;;;34.55;34.39
71915;BME280;60387;49.994;14.660;2022-08-19T13:10:41;97184.78;;;34.70;35.43
71915;BME280;60387;49.994;14.660;2022-08-19T13:13:15;97182.91;;;34.85;34.66
71915;BME280;60387;49.994;14.660;2022-08-19T13:15:48;97169.09;;;34.96;34.09
71915;BME280;60387;49.994;14.660;2022-08-19T13:18:21;97170.31;;;35.04;34.37
71915;BME280;60387;49.994;14.660;2022-08-19T13:20:54;97175.44;;;35.14;34.79
71915;BME280;60387;49.994;14.660;2022-08-19T13:23:28;97177.97;;;35.21;34.26
71915;BME280;60387;49.994;14.660;2022-08-19T13:26:04;97175.72;;;35.25;33.17
71915;BME280;60387;49.994;14.660;2022-08-19T13:28:40;97170.28;;;35.22;34.36
71915;BME280;60387;49.994;14.660;2022-08-19T13:31:21;97176.41;;;35.20;33.74
71915;BME280;60387;49.994;14.660;2022-08-19T13:33:55;97182.63;;;35.15;34.10
71915;BME280;60387;49.994;14.660;2022-08-19T13:36:28;97185.63;;;35.12;33.55
71915;BME280;60387;49.994;14.660;2022-08-19T13:39:02;97180.03;;;35.03;33.58